sensor_id;sensor_type;location;lat;lon;timestamp;pressure;altitude;pressure_sealevel;temperature;humidity
69245;BME280;56357;52.304;4.870;2023-03-20T00:00:07;102141.50;;;18.70;53.34
69245;BME280;56357;52.304;4.870;2023-03-20T00:02:35;102134.28;;;18.74;53.28
69245;BME280;56357;52.304;4.870;2023-03-20T00:05:14;102129.78;;;18.73;53.26
69245;BME280;56357;52.304;4.870;2023-03-20T00:07:43;102126.03;;;18.67;53.57
69245;BME280;56357;52.304;4.870;2023-03-20T00:10:10;102133.09;;;18.70;53.47
69245;BME280;56357;52.304;4.870;2023-03-20T00:12:36;102117.88;;;18.66;53.32
69245;BME280;56357;52.304;4.870;2023-03-20T00:15:06;102121.28;;;18.68;53.45
69245;BME280;56357;52.304;4.870;2023-03-20T00:17:33;102123.47;;;18.66;53.31
69245;BME280;56357;52.304;4.870;2023-03-20T00:19:59;102121.28;;;18.68;53.43
69245;BME280;56357;52.304;4.870;2023-03-20T00:22:25;102130.28;;;18.70;53.05
69245;BME280;56357;52.304;4.870;2023-03-20T00:24:53;102126.28;;;18.66;53.28
69245;BME280;56357;52.304;4.870;2023-03-20T00:27:20;102137.25;;;18.67;53.38
69245;BME280;56357;52.304;4.870;2023-03-20T00:29:46;102134.69;;;18.66;53.11
69245;BME280;56357;52.304;4.870;2023-03-20T00:32:13;102150.94;;;18.64;53.20
69245;BME280;56357;52.304;4.870;2023-03-20T00:34:40;102144.50;;;18.63;53.38
69245;BME280;56357;52.304;4.870;2023-03-20T00:37:08;102148.13;;;18.64;53.17
69245;BME280;56357;52.304;4.870;2023-03-20T00:39:35;102163.53;;;18.61;53.27
69245;BME280;56357;52.304;4.870;2023-03-20T00:42:04;102154.75;;;18.58;53.07
69245;BME280;56357;52.304;4.870;2023-03-20T00:44:52;102151.72;;;18.59;53.24
69245;BME280;56357;52.304;4.870;2023-03-20T00:47:23;102155.13;;;18.61;53.43
69245;BME280;56357;52.304;4.870;2023-03-20T00:49:51;102145.84;;;18.61;53.19
69245;BME280;56357;52.304;4.870;2023-03-20T00:52:19;102135.03;;;18.53;53.23
69245;BME280;56357;52.304;4.870;2023-03-20T00:54:46;102135.91;;;18.53;53.18
69245;BME280;56357;52.304;4.870;2023-03-20T00:57:17;102146.25;;;18.53;53.13
69245;BME280;56357;52.304;4.870;2023-03-20T00:59:58;102147.38;;;18.52;52.98
69245;BME280;56357;52.304;4.870;2023-03-20T01:02:27;102157.81;;;18.56;53.05
69245;BME280;56357;52.304;4.870;2023-03-20T01:04:55;102157.81;;;18.56;52.86
69245;BME280;56357;52.304;4.870;2023-03-20T01:07:21;102150.78;;;18.54;53.18
69245;BME280;56357;52.304;4.870;2023-03-20T01:09:48;102156.63;;;18.52;52.89
69245;BME280;56357;52.304;4.870;2023-03-20T01:12:14;102153.22;;;18.50;53.02
69245;BME280;56357;52.304;4.870;2023-03-20T01:14:42;102159.69;;;18.51;52.96
69245;BME280;56357;52.304;4.870;2023-03-20T01:17:16;102148.97;;;18.48;53.09
69245;BME280;56357;52.304;4.870;2023-03-20T01:19:43;102153.47;;;18.49;53.13
69245;BME280;56357;52.304;4.870;2023-03-20T01:22:09;102148.97;;;18.48;52.99
69245;BME280;56357;52.304;4.870;2023-03-20T01:24:38;102147.25;;;18.47;52.96
69245;BME280;56357;52.304;4.870;2023-03-20T01:27:11;102151.44;;;18.44;53.16
69245;BME280;56357;52.304;4.870;2023-03-20T01:29:38;102144.47;;;18.47;53.05
69245;BME280;56357;52.304;4.870;2023-03-20T01:32:11;102151.66;;;18.43;53.01
69245;BME280;56357;52.304;4.870;2023-03-20T01:34:38;102174.72;;;18.45;53.12
69245;BME280;56357;52.304;4.870;2023-03-20T01:37:10;102171.53;;;18.41;53.02
69245;BME280;56357;52.304;4.870;2023-03-20T01:39:38;102162.25;;;18.41;52.99
69245;BME280;56357;52.304;4.870;2023-03-20T01:42:05;102153.16;;;18.34;53.18
69245;BME280;56357;52.304;4.870;2023-03-20T01:44:34;102172.03;;;18.38;53.18
69245;BME280;56357;52.304;4.870;2023-03-20T01:47:04;102170.66;;;18.41;53.07
69245;BME280;56357;52.304;4.870;2023-03-20T01:52:37;102166.06;;;18.35;53.15
69245;BME280;56357;52.304;4.870;2023-03-20T01:55:03;102158.25;;;18.37;52.64
69245;BME280;56357;52.304;4.870;2023-03-20T01:57:30;102140.25;;;18.33;53.28
69245;BME280;56357;52.304;4.870;2023-03-20T02:00:01;102144.47;;;18.35;53.02
69245;BME280;56357;52.304;4.870;2023-03-20T02:02:30;102132.41;;;18.35;52.74
69245;BME280;56357;52.304;4.870;2023-03-20T02:05:01;102123.03;;;18.29;52.74
69245;BME280;56357;52.304;4.870;2023-03-20T02:07:29;102134.88;;;18.31;52.81
69245;BME280;56357;52.304;4.870;2023-03-20T02:09:58;102145.47;;;18.29;52.71
69245;BME280;56357;52.304;4.870;2023-03-20T02:12:25;102131.22;;;18.31;52.81
69245;BME280;56357;52.304;4.870;2023-03-20T02:14:51;102131.84;;;18.33;52.78
69245;BME280;56357;52.304;4.870;2023-03-20T02:17:18;102123.03;;;18.29;52.79
69245;BME280;56357;52.304;4.870;2023-03-20T02:20:20;102122.22;;;18.28;52.67
69245;BME280;56357;52.304;4.870;2023-03-20T02:28:16;102105.28;;;18.23;52.78
69245;BME280;56357;52.304;4.870;2023-03-20T02:39:20;102076.63;;;18.21;52.81
69245;BME280;56357;52.304;4.870;2023-03-20T02:42:33;102063.72;;;18.20;52.90
69245;BME280;56357;52.304;4.870;2023-03-20T02:45:04;102080.56;;;18.20;52.53
69245;BME280;56357;52.304;4.870;2023-03-20T02:47:36;102074.09;;;18.20;52.67
69245;BME280;56357;52.304;4.870;2023-03-20T02:50:16;102082.50;;;18.20;52.93
69245;BME280;56357;52.304;4.870;2023-03-20T02:52:58;102074.34;;;18.18;52.77
69245;BME280;56357;52.304;4.870;2023-03-20T02:55:48;102081.91;;;18.18;52.79
69245;BME280;56357;52.304;4.870;2023-03-20T02:58:29;102073.75;;;18.16;52.79
69245;BME280;56357;52.304;4.870;2023-03-20T03:03:42;102091.44;;;18.17;52.79
69245;BME280;56357;52.304;4.870;2023-03-20T03:06:17;102088.84;;;18.15;52.84
69245;BME280;56357;52.304;4.870;2023-03-20T03:08:49;102085.72;;;18.12;53.07
69245;BME280;56357;52.304;4.870;2023-03-20T03:11:17;102083.69;;;18.07;53.21
69245;BME280;56357;52.304;4.870;2023-03-20T03:13:48;102078.56;;;18.04;53.17
69245;BME280;56357;52.304;4.870;2023-03-20T03:16:28;102072.69;;;18.06;52.94
69245;BME280;56357;52.304;4.870;2023-03-20T03:19:08;102074.16;;;18.08;52.94
69245;BME280;56357;52.304;4.870;2023-03-20T03:21:38;102071.59;;;18.07;53.03
69245;BME280;56357;52.304;4.870;2023-03-20T03:26:57;102060.06;;;18.03;53.38
69245;BME280;56357;52.304;4.870;2023-03-20T03:29:27;102057.84;;;18.05;53.32
69245;BME280;56357;52.304;4.870;2023-03-20T03:31:56;102050.53;;;18.04;53.41
69245;BME280;56357;52.304;4.870;2023-03-20T03:34:22;102058.44;;;18.07;53.17
69245;BME280;56357;52.304;4.870;2023-03-20T03:39:42;102038.72;;;18.02;53.41
69245;BME280;56357;52.304;4.870;2023-03-20T03:42:14;102033.44;;;18.06;53.26
69245;BME280;56357;52.304;4.870;2023-03-20T03:47:45;102031.50;;;18.06;53.74
69245;BME280;56357;52.304;4.870;2023-03-20T03:50:30;102032.63;;;18.05;53.30
69245;BME280;56357;52.304;4.870;2023-03-20T03:53:01;102034.03;;;18.08;53.20
69245;BME280;56357;52.304;4.870;2023-03-20T03:55:34;102039.66;;;18.08;53.62
69245;BME280;56357;52.304;4.870;2023-03-20T03:58:07;102024.44;;;18.04;53.08
69245;BME280;56357;52.304;4.870;2023-03-20T04:00:36;102026.00;;;18.11;53.31
69245;BME280;56357;52.304;4.870;2023-03-20T04:03:06;102034.50;;;18.16;53.06
69245;BME280;56357;52.304;4.870;2023-03-20T04:05:35;102033.44;;;18.06;53.29
69245;BME280;56357;52.304;4.870;2023-03-20T04:08:05;102023.34;;;18.05;53.40
69245;BME280;56357;52.304;4.870;2023-03-20T04:10:32;102026.50;;;18.08;53.46
69245;BME280;56357;52.304;4.870;2023-03-20T04:12:58;102044.50;;;18.12;53.36
69245;BME280;56357;52.304;4.870;2023-03-20T04:15:25;102048.44;;;18.11;53.49
69245;BME280;56357;52.304;4.870;2023-03-20T04:17:52;102039.56;;;18.03;53.77
69245;BME280;56357;52.304;4.870;2023-03-20T04:20:19;102031.84;;;18.10;53.51
69245;BME280;56357;52.304;4.870;2023-03-20T04:22:45;102038.91;;;18.12;53.48
69245;BME280;56357;52.304;4.870;2023-03-20T04:25:23;102040.59;;;18.13;53.29
69245;BME280;56357;52.304;4.870;2023-03-20T04:27:50;102042.81;;;18.11;53.50
69245;BME280;56357;52.304;4.870;2023-03-20T04:30:17;102041.72;;;18.12;53.55
69245;BME280;56357;52.304;4.870;2023-03-20T04:32:44;102045.09;;;18.14;53.14
69245;BME280;56357;52.304;4.870;2023-03-20T04:35:10;102042.31;;;18.14;53.35
69245;BME280;56357;52.304;4.870;2023-03-20T04:37:37;102037.56;;;18.15;53.55
69245;BME280;56357;52.304;4.870;2023-03-20T04:40:03;102039.25;;;18.16;53.39
69245;BME280;56357;52.304;4.870;2023-03-20T04:42:30;102031.09;;;18.14;53.30
69245;BME280;56357;52.304;4.870;2023-03-20T04:44:56;102035.09;;;18.18;53.24
69245;BME280;56357;52.304;4.870;2023-03-20T04:47:23;102020.22;;;18.18;53.29
69245;BME280;56357;52.304;4.870;2023-03-20T04:49:49;102019.72;;;18.21;53.39
69245;BME280;56357;52.304;4.870;2023-03-20T04:52:16;102015.81;;;18.22;53.68
69245;BME280;56357;52.304;4.870;2023-03-20T04:54:42;102017.16;;;18.19;53.31
69245;BME280;56357;52.304;4.870;2023-03-20T04:57:09;102014.94;;;18.21;53.31
69245;BME280;56357;52.304;4.870;2023-03-20T04:59:35;102011.53;;;18.19;53.78
69245;BME280;56357;52.304;4.870;2023-03-20T05:02:01;102009.00;;;18.18;53.74
69245;BME280;56357;52.304;4.870;2023-03-20T05:04:28;102011.22;;;18.16;53.63
69245;BME280;56357;52.304;4.870;2023-03-20T05:06:54;102005.34;;;18.17;53.74
69245;BME280;56357;52.304;4.870;2023-03-20T05:09:21;102002.66;;;18.22;53.57
69245;BME280;56357;52.304;4.870;2023-03-20T05:11:47;102001.25;;;18.25;53.63
69245;BME280;56357;52.304;4.870;2023-03-20T05:14:14;102007.25;;;18.28;53.15
69245;BME280;56357;52.304;4.870;2023-03-20T05:16:40;102001.53;;;18.23;53.57
69245;BME280;56357;52.304;4.870;2023-03-20T05:19:07;102016.06;;;18.20;53.47
69245;BME280;56357;52.304;4.870;2023-03-20T05:21:33;102012.16;;;18.21;53.49
69245;BME280;56357;52.304;4.870;2023-03-20T05:24:00;102015.47;;;18.18;53.68
69245;BME280;56357;52.304;4.870;2023-03-20T05:26:27;102016.66;;;18.22;53.64
69245;BME280;56357;52.304;4.870;2023-03-20T05:28:53;102018.94;;;18.25;53.51
69245;BME280;56357;52.304;4.870;2023-03-20T05:31:19;102021.16;;;18.23;53.49
69245;BME280;56357;52.304;4.870;2023-03-20T05:33:46;102008.50;;;18.21;53.65
69245;BME280;56357;52.304;4.870;2023-03-20T05:36:12;102014.72;;;18.23;53.41
69245;BME280;56357;52.304;4.870;2023-03-20T05:38:39;102013.34;;;18.25;53.55
69245;BME280;56357;52.304;4.870;2023-03-20T05:41:05;102017.53;;;18.23;53.40
69245;BME280;56357;52.304;4.870;2023-03-20T05:43:32;102020.31;;;18.23;53.67
69245;BME280;56357;52.304;4.870;2023-03-20T05:45:58;102016.28;;;18.02;54.26
69245;BME280;56357;52.304;4.870;2023-03-20T05:48:25;102014.00;;;18.16;53.98
69245;BME280;56357;52.304;4.870;2023-03-20T05:50:51;102011.91;;;18.23;53.47
69245;BME280;56357;52.304;4.870;2023-03-20T05:53:18;102010.47;;;18.20;53.54
69245;BME280;56357;52.304;4.870;2023-03-20T05:55:44;102013.06;;;18.27;53.80
69245;BME280;56357;52.304;4.870;2023-03-20T05:58:11;102015.81;;;18.22;53.52
69245;BME280;56357;52.304;4.870;2023-03-20T06:00:38;102014.78;;;18.11;54.01
69245;BME280;56357;52.304;4.870;2023-03-20T06:03:05;102019.72;;;18.21;53.98
69245;BME280;56357;52.304;4.870;2023-03-20T06:05:33;102022.28;;;18.22;54.25
69245;BME280;56357;52.304;4.870;2023-03-20T06:08:00;102024.81;;;18.24;53.92
69245;BME280;56357;52.304;4.870;2023-03-20T06:10:27;102028.56;;;18.29;53.51
69245;BME280;56357;52.304;4.870;2023-03-20T06:12:54;102026.34;;;18.32;53.49
69245;BME280;56357;52.304;4.870;2023-03-20T06:15:22;102020.66;;;18.26;53.88
69245;BME280;56357;52.304;4.870;2023-03-20T06:17:48;102028.69;;;18.06;54.71
69245;BME280;56357;52.304;4.870;2023-03-20T06:20:15;102038.84;;;18.24;54.40
69245;BME280;56357;52.304;4.870;2023-03-20T06:22:41;102032.09;;;18.08;53.94
69245;BME280;56357;52.304;4.870;2023-03-20T06:25:08;102033.28;;;18.12;54.88
69245;BME280;56357;52.304;4.870;2023-03-20T06:27:35;102032.63;;;18.22;54.68
69245;BME280;56357;52.304;4.870;2023-03-20T06:30:01;102034.34;;;18.23;55.01
69245;BME280;56357;52.304;4.870;2023-03-20T06:32:28;102037.78;;;18.13;55.26
69245;BME280;56357;52.304;4.870;2023-03-20T06:34:54;102035.50;;;18.27;54.81
69245;BME280;56357;52.304;4.870;2023-03-20T06:37:20;102034.00;;;18.36;54.56
69245;BME280;56357;52.304;4.870;2023-03-20T06:39:47;102034.84;;;18.37;54.27
69245;BME280;56357;52.304;4.870;2023-03-20T06:42:14;102036.47;;;18.33;54.86
69245;BME280;56357;52.304;4.870;2023-03-20T06:44:42;102041.38;;;18.25;54.98
69245;BME280;56357;52.304;4.870;2023-03-20T06:47:08;102039.28;;;18.33;54.63
69245;BME280;56357;52.304;4.870;2023-03-20T06:49:35;102037.03;;;18.35;54.46
69245;BME280;56357;52.304;4.870;2023-03-20T06:52:01;102040.22;;;18.38;54.06
69245;BME280;56357;52.304;4.870;2023-03-20T06:54:28;102043.84;;;18.39;54.29
69245;BME280;56357;52.304;4.870;2023-03-20T06:56:54;102035.84;;;18.42;54.61
69245;BME280;56357;52.304;4.870;2023-03-20T06:59:21;102038.75;;;18.36;55.41
69245;BME280;56357;52.304;4.870;2023-03-20T07:01:47;102035.50;;;18.27;55.65
69245;BME280;56357;52.304;4.870;2023-03-20T07:04:14;102045.22;;;18.36;55.95
69245;BME280;56357;52.304;4.870;2023-03-20T07:06:41;102044.44;;;18.41;55.61
69245;BME280;56357;52.304;4.870;2023-03-20T07:09:07;102042.44;;;18.36;56.21
69245;BME280;56357;52.304;4.870;2023-03-20T07:11:34;102048.78;;;18.32;55.74
69245;BME280;56357;52.304;4.870;2023-03-20T07:14:00;102048.03;;;18.36;55.70
69245;BME280;56357;52.304;4.870;2023-03-20T07:16:27;102053.59;;;18.48;55.30
69245;BME280;56357;52.304;4.870;2023-03-20T07:18:54;102051.41;;;18.50;54.93
69245;BME280;56357;52.304;4.870;2023-03-20T07:21:21;102042.44;;;18.53;54.81
69245;BME280;56357;52.304;4.870;2023-03-20T07:23:48;102048.00;;;18.48;54.83
69245;BME280;56357;52.304;4.870;2023-03-20T07:26:14;102050.53;;;18.49;54.52
69245;BME280;56357;52.304;4.870;2023-03-20T07:28:41;102053.69;;;18.53;54.27
69245;BME280;56357;52.304;4.870;2023-03-20T07:31:18;102054.28;;;18.55;54.28
69245;BME280;56357;52.304;4.870;2023-03-20T07:33:44;102043.72;;;18.45;54.15
69245;BME280;56357;52.304;4.870;2023-03-20T07:36:11;102055.03;;;18.50;54.28
69245;BME280;56357;52.304;4.870;2023-03-20T07:38:37;102055.53;;;18.47;54.33
69245;BME280;56357;52.304;4.870;2023-03-20T07:41:04;102063.81;;;18.54;54.00
69245;BME280;56357;52.304;4.870;2023-03-20T07:43:30;102063.81;;;18.54;54.18
69245;BME280;56357;52.304;4.870;2023-03-20T07:45:57;102066.09;;;18.57;54.17
69245;BME280;56357;52.304;4.870;2023-03-20T07:48:23;102067.03;;;18.62;53.93
69245;BME280;56357;52.304;4.870;2023-03-20T07:50:50;102066.84;;;18.52;53.65
69245;BME280;56357;52.304;4.870;2023-03-20T07:53:16;102056.47;;;18.53;53.84
69245;BME280;56357;52.304;4.870;2023-03-20T07:55:43;102064.81;;;18.48;54.17
69245;BME280;56357;52.304;4.870;2023-03-20T07:58:09;102060.56;;;18.45;53.98
69245;BME280;56357;52.304;4.870;2023-03-20T08:00:36;102058.69;;;18.51;54.05
69245;BME280;56357;52.304;4.870;2023-03-20T08:03:02;102068.00;;;18.40;54.20
69245;BME280;56357;52.304;4.870;2023-03-20T08:05:29;102062.72;;;18.26;55.11
69245;BME280;56357;52.304;4.870;2023-03-20T08:07:56;102070.56;;;18.41;54.56
69245;BME280;56357;52.304;4.870;2023-03-20T08:10:22;102065.41;;;18.21;55.24
69245;BME280;56357;52.304;4.870;2023-03-20T08:12:49;102071.03;;;18.21;55.22
69245;BME280;56357;52.304;4.870;2023-03-20T08:15:16;102074.63;;;18.34;54.77
69245;BME280;56357;52.304;4.870;2023-03-20T08:17:43;102071.06;;;18.38;54.68
69245;BME280;56357;52.304;4.870;2023-03-20T08:20:11;102075.03;;;18.54;54.04
69245;BME280;56357;52.304;4.870;2023-03-20T08:22:38;102069.91;;;18.51;54.17
69245;BME280;56357;52.304;4.870;2023-03-20T08:25:05;102069.94;;;18.39;55.13
69245;BME280;56357;52.304;4.870;2023-03-20T08:27:33;102076.38;;;18.51;54.77
69245;BME280;56357;52.304;4.870;2023-03-20T08:29:59;102079.25;;;18.56;54.61
69245;BME280;56357;52.304;4.870;2023-03-20T08:32:26;102066.00;;;18.52;54.55
69245;BME280;56357;52.304;4.870;2023-03-20T08:34:52;102062.75;;;18.60;54.45
69245;BME280;56357;52.304;4.870;2023-03-20T08:37:20;102071.28;;;18.65;54.47
69245;BME280;56357;52.304;4.870;2023-03-20T08:39:47;102081.38;;;18.49;54.78
69245;BME280;56357;52.304;4.870;2023-03-20T08:42:13;102068.22;;;18.50;54.92
69245;BME280;56357;52.304;4.870;2023-03-20T08:44:40;102067.03;;;18.62;54.51
69245;BME280;56357;52.304;4.870;2023-03-20T08:47:07;102063.03;;;18.58;54.75
69245;BME280;56357;52.304;4.870;2023-03-20T08:49:35;102064.16;;;18.57;54.48
69245;BME280;56357;52.304;4.870;2023-03-20T08:52:02;102059.97;;;18.60;54.48
69245;BME280;56357;52.304;4.870;2023-03-20T08:54:29;102060.91;;;18.65;54.54
69245;BME280;56357;52.304;4.870;2023-03-20T08:56:55;102064.06;;;18.69;54.00
69245;BME280;56357;52.304;4.870;2023-03-20T08:59:22;102057.31;;;18.70;53.96
69245;BME280;56357;52.304;4.870;2023-03-20T09:01:48;102061.75;;;18.66;54.12
69245;BME280;56357;52.304;4.870;2023-03-20T09:04:15;102060.66;;;18.67;53.95
69245;BME280;56357;52.304;4.870;2023-03-20T09:06:42;102056.25;;;18.71;53.71
69245;BME280;56357;52.304;4.870;2023-03-20T09:09:09;102057.84;;;18.67;54.11
69245;BME280;56357;52.304;4.870;2023-03-20T09:11:35;102052.25;;;18.67;53.87
69245;BME280;56357;52.304;4.870;2023-03-20T09:14:02;102054.94;;;18.62;53.91
69245;BME280;56357;52.304;4.870;2023-03-20T09:16:29;102053.25;;;18.61;54.05
69245;BME280;56357;52.304;4.870;2023-03-20T09:18:55;102054.78;;;18.68;53.64
69245;BME280;56357;52.304;4.870;2023-03-20T09:21:22;102062.59;;;18.66;54.10
69245;BME280;56357;52.304;4.870;2023-03-20T09:23:48;102054.78;;;18.68;53.85
69245;BME280;56357;52.304;4.870;2023-03-20T09:26:15;102057.00;;;18.66;53.91
69245;BME280;56357;52.304;4.870;2023-03-20T09:28:41;102058.34;;;18.64;53.98
69245;BME280;56357;52.304;4.870;2023-03-20T09:31:08;102041.78;;;18.62;53.80
69245;BME280;56357;52.304;4.870;2023-03-20T09:33:34;102047.97;;;18.64;53.58
69245;BME280;56357;52.304;4.870;2023-03-20T09:36:01;102047.72;;;18.66;53.89
69245;BME280;56357;52.304;4.870;2023-03-20T09:38:27;102052.25;;;18.67;53.89
69245;BME280;56357;52.304;4.870;2023-03-20T09:41:01;102052.72;;;18.64;53.92
69245;BME280;56357;52.304;4.870;2023-03-20T09:48:57;102058.88;;;18.61;53.71
69245;BME280;56357;52.304;4.870;2023-03-20T09:51:52;102059.34;;;18.58;54.16
69245;BME280;56357;52.304;4.870;2023-03-20T09:54:38;102054.78;;;18.52;54.64
69245;BME280;56357;52.304;4.870;2023-03-20T09:57:16;102052.31;;;18.55;54.88
69245;BME280;56357;52.304;4.870;2023-03-20T09:59:45;102048.66;;;18.55;54.58
69245;BME280;56357;52.304;4.870;2023-03-20T10:02:16;102052.81;;;18.52;54.79
69245;BME280;56357;52.304;4.870;2023-03-20T10:04:50;102054.28;;;18.55;54.42
69245;BME280;56357;52.304;4.870;2023-03-20T10:07:18;102049.19;;;18.52;54.44
69245;BME280;56357;52.304;4.870;2023-03-20T10:09:45;102057.00;;;18.50;54.77
69245;BME280;56357;52.304;4.870;2023-03-20T10:12:52;102048.31;;;18.51;54.89
69245;BME280;56357;52.304;4.870;2023-03-20T10:15:42;102056.41;;;18.48;54.70
69245;BME280;56357;52.304;4.870;2023-03-20T10:18:22;102060.63;;;18.50;54.43
69245;BME280;56357;52.304;4.870;2023-03-20T10:20:58;102053.97;;;18.40;55.12
69245;BME280;56357;52.304;4.870;2023-03-20T10:23:36;102053.34;;;18.49;54.62
69245;BME280;56357;52.304;4.870;2023-03-20T10:26:11;102051.88;;;18.47;54.85
69245;BME280;56357;52.304;4.870;2023-03-20T10:29:05;102044.25;;;18.42;54.65
69245;BME280;56357;52.304;4.870;2023-03-20T10:34:52;102045.25;;;18.53;54.52
69245;BME280;56357;52.304;4.870;2023-03-20T10:37:41;102037.97;;;18.52;54.21
69245;BME280;56357;52.304;4.870;2023-03-20T10:42:46;102029.28;;;18.53;54.21
69245;BME280;56357;52.304;4.870;2023-03-20T10:45:18;102040.84;;;18.57;54.46
69245;BME280;56357;52.304;4.870;2023-03-20T10:47:50;102039.38;;;18.54;53.90
69245;BME280;56357;52.304;4.870;2023-03-20T10:50:20;102035.91;;;18.47;54.21
69245;BME280;56357;52.304;4.870;2023-03-20T10:52:50;102029.78;;;18.50;54.03
69245;BME280;56357;52.304;4.870;2023-03-20T10:55:20;102026.63;;;18.47;54.61
69245;BME280;56357;52.304;4.870;2023-03-20T10:57:55;102036.84;;;18.53;54.07
69245;BME280;56357;52.304;4.870;2023-03-20T11:00:24;102025.88;;;18.51;54.07
69245;BME280;56357;52.304;4.870;2023-03-20T11:02:51;102025.63;;;18.53;53.93
69245;BME280;56357;52.304;4.870;2023-03-20T11:05:29;102022.22;;;18.51;53.98
69245;BME280;56357;52.304;4.870;2023-03-20T11:08:29;102030.63;;;18.51;54.05
69245;BME280;56357;52.304;4.870;2023-03-20T11:10:58;102035.56;;;18.44;54.15
69245;BME280;56357;52.304;4.870;2023-03-20T11:13:32;102026.91;;;18.45;53.88
69245;BME280;56357;52.304;4.870;2023-03-20T11:16:18;102024.53;;;18.54;53.27
69245;BME280;56357;52.304;4.870;2023-03-20T11:18:46;102012.78;;;18.57;53.11
69245;BME280;56357;52.304;4.870;2023-03-20T11:21:21;102021.97;;;18.52;53.29
69245;BME280;56357;52.304;4.870;2023-03-20T11:23:49;102026.38;;;18.65;54.98
69245;BME280;56357;52.304;4.870;2023-03-20T11:26:19;102025.38;;;18.71;54.14
69245;BME280;56357;52.304;4.870;2023-03-20T11:28:55;102015.16;;;18.65;53.98
69245;BME280;56357;52.304;4.870;2023-03-20T11:31:41;102025.88;;;18.68;54.19
69245;BME280;56357;52.304;4.870;2023-03-20T11:36:46;102019.59;;;18.61;54.71
69245;BME280;56357;52.304;4.870;2023-03-20T11:39:24;102014.56;;;18.63;54.48
69245;BME280;56357;52.304;4.870;2023-03-20T11:41:53;102015.75;;;18.67;54.67
69245;BME280;56357;52.304;4.870;2023-03-20T11:44:31;102008.03;;;18.57;54.97
69245;BME280;56357;52.304;4.870;2023-03-20T11:47:17;102016.53;;;18.46;55.24
69245;BME280;56357;52.304;4.870;2023-03-20T11:49:53;102016.25;;;18.64;54.98
69245;BME280;56357;52.304;4.870;2023-03-20T11:52:23;102018.56;;;18.67;55.16
69245;BME280;56357;52.304;4.870;2023-03-20T11:54:54;102008.44;;;18.66;55.18
69245;BME280;56357;52.304;4.870;2023-03-20T11:57:30;102007.25;;;18.62;54.69
69245;BME280;56357;52.304;4.870;2023-03-20T12:00:00;102006.56;;;18.71;54.65
69245;BME280;56357;52.304;4.870;2023-03-20T12:02:27;102011.94;;;18.73;54.58
69245;BME280;56357;52.304;4.870;2023-03-20T12:04:58;102003.69;;;18.66;54.94
69245;BME280;56357;52.304;4.870;2023-03-20T12:07:31;102010.22;;;18.72;54.60
69245;BME280;56357;52.304;4.870;2023-03-20T12:10:03;102006.81;;;18.70;54.88
69245;BME280;56357;52.304;4.870;2023-03-20T12:18:16;102001.78;;;18.72;54.93
69245;BME280;56357;52.304;4.870;2023-03-20T12:21:17;101995.31;;;18.71;54.83
69245;BME280;56357;52.304;4.870;2023-03-20T12:27:20;101992.34;;;18.78;55.09
69245;BME280;56357;52.304;4.870;2023-03-20T12:29:53;101996.72;;;18.69;55.06
69245;BME280;56357;52.304;4.870;2023-03-20T12:35:15;101989.91;;;18.65;55.19
69245;BME280;56357;52.304;4.870;2023-03-20T12:37:43;101982.69;;;18.69;55.29
69245;BME280;56357;52.304;4.870;2023-03-20T12:40:15;101984.91;;;18.67;55.45
69245;BME280;56357;52.304;4.870;2023-03-20T12:43:04;101983.88;;;18.73;55.55
69245;BME280;56357;52.304;4.870;2023-03-20T12:48:43;101977.19;;;18.79;55.68
69245;BME280;56357;52.304;4.870;2023-03-20T12:59:57;101973.63;;;18.83;55.17
69245;BME280;56357;52.304;4.870;2023-03-20T13:10:59;101962.66;;;18.82;56.52
69245;BME280;56357;52.304;4.870;2023-03-20T13:14:12;101956.16;;;18.98;56.38
69245;BME280;56357;52.304;4.870;2023-03-20T13:16:50;101951.59;;;18.92;55.96
69245;BME280;56357;52.304;4.870;2023-03-20T13:19:42;101939.78;;;18.90;55.77
69245;BME280;56357;52.304;4.870;2023-03-20T13:22:21;101944.34;;;18.96;55.63
69245;BME280;56357;52.304;4.870;2023-03-20T13:24:53;101936.75;;;18.96;55.35
69245;BME280;56357;52.304;4.870;2023-03-20T13:27:40;101939.31;;;18.98;55.36
69245;BME280;56357;52.304;4.870;2023-03-20T13:30:14;101942.13;;;18.98;55.11
69245;BME280;56357;52.304;4.870;2023-03-20T13:32:53;101930.91;;;18.98;54.98
69245;BME280;56357;52.304;4.870;2023-03-20T13:35:42;101934.81;;;18.97;54.82
69245;BME280;56357;52.304;4.870;2023-03-20T13:38:18;101928.66;;;19.00;54.32
69245;BME280;56357;52.304;4.870;2023-03-20T13:40:51;101930.03;;;18.97;54.14
69245;BME280;56357;52.304;4.870;2023-03-20T13:46:38;101930.38;;;19.01;53.89
69245;BME280;56357;52.304;4.870;2023-03-20T13:49:14;101933.44;;;18.99;54.04
69245;BME280;56357;52.304;4.870;2023-03-20T13:51:43;101925.84;;;19.00;54.03
69245;BME280;56357;52.304;4.870;2023-03-20T13:56:49;101925.84;;;19.00;53.73
69245;BME280;56357;52.304;4.870;2023-03-20T14:05:00;101929.78;;;18.99;54.50
69245;BME280;56357;52.304;4.870;2023-03-20T14:07:46;101935.97;;;19.01;54.33
69245;BME280;56357;52.304;4.870;2023-03-20T14:12:52;101931.84;;;18.87;54.55
69245;BME280;56357;52.304;4.870;2023-03-20T14:15:20;101924.59;;;18.91;53.73
69245;BME280;56357;52.304;4.870;2023-03-20T14:17:48;101921.53;;;18.92;53.86
69245;BME280;56357;52.304;4.870;2023-03-20T14:20:32;101919.31;;;18.94;53.85
69245;BME280;56357;52.304;4.870;2023-03-20T14:22:59;101924.34;;;18.92;53.80
69245;BME280;56357;52.304;4.870;2023-03-20T14:25:32;101928.00;;;18.93;53.49
69245;BME280;56357;52.304;4.870;2023-03-20T14:28:07;101923.09;;;18.83;53.62
69245;BME280;56357;52.304;4.870;2023-03-20T14:30:48;101922.34;;;18.88;53.69
69245;BME280;56357;52.304;4.870;2023-03-20T14:35:43;101923.75;;;18.90;53.31
69245;BME280;56357;52.304;4.870;2023-03-20T14:38:23;101914.19;;;18.86;53.41